sensor_id;sensor_type;location;lat;lon;timestamp;temperature;humidity
53268;DHT22;39156;51.176;6.738;2023-03-23T00:01:48;12.50;70.60
53268;DHT22;39156;51.176;6.738;2023-03-23T00:04:17;12.50;70.60
53268;DHT22;39156;51.176;6.738;2023-03-23T00:06:44;12.50;70.70
53268;DHT22;39156;51.176;6.738;2023-03-23T00:09:14;12.50;70.70
53268;DHT22;39156;51.176;6.738;2023-03-23T00:11:41;12.50;70.80
53268;DHT22;39156;51.176;6.738;2023-03-23T00:14:07;12.50;70.70
53268;DHT22;39156;51.176;6.738;2023-03-23T00:16:39;12.50;70.60
53268;DHT22;39156;51.176;6.738;2023-03-23T00:19:09;12.50;70.60
53268;DHT22;39156;51.176;6.738;2023-03-23T00:21:39;12.50;70.60
53268;DHT22;39156;51.176;6.738;2023-03-23T00:24:15;12.50;70.50
53268;DHT22;39156;51.176;6.738;2023-03-23T00:26:47;12.60;70.70
53268;DHT22;39156;51.176;6.738;2023-03-23T00:29:22;12.50;70.70
53268;DHT22;39156;51.176;6.738;2023-03-23T00:31:48;12.50;70.80
53268;DHT22;39156;51.176;6.738;2023-03-23T00:34:17;12.50;70.60
53268;DHT22;39156;51.176;6.738;2023-03-23T00:36:48;12.50;70.70
53268;DHT22;39156;51.176;6.738;2023-03-23T00:39:16;12.50;70.80
53268;DHT22;39156;51.176;6.738;2023-03-23T00:41:43;12.50;70.60
53268;DHT22;39156;51.176;6.738;2023-03-23T00:44:09;12.50;70.50
53268;DHT22;39156;51.176;6.738;2023-03-23T00:46:35;12.50;70.50
53268;DHT22;39156;51.176;6.738;2023-03-23T00:49:14;12.50;70.50
53268;DHT22;39156;51.176;6.738;2023-03-23T00:51:41;12.50;70.60
53268;DHT22;39156;51.176;6.738;2023-03-23T00:54:07;12.50;70.50
53268;DHT22;39156;51.176;6.738;2023-03-23T00:56:34;12.50;70.50
53268;DHT22;39156;51.176;6.738;2023-03-23T00:59:00;12.50;70.40
53268;DHT22;39156;51.176;6.738;2023-03-23T01:01:26;12.50;70.40
53268;DHT22;39156;51.176;6.738;2023-03-23T01:03:52;12.60;70.50
53268;DHT22;39156;51.176;6.738;2023-03-23T01:06:27;12.50;70.40
53268;DHT22;39156;51.176;6.738;2023-03-23T01:08:54;12.50;70.30
53268;DHT22;39156;51.176;6.738;2023-03-23T01:11:20;12.50;70.50
53268;DHT22;39156;51.176;6.738;2023-03-23T01:13:46;12.50;70.50
53268;DHT22;39156;51.176;6.738;2023-03-23T01:16:12;12.50;70.70
53268;DHT22;39156;51.176;6.738;2023-03-23T01:18:38;12.50;70.70
53268;DHT22;39156;51.176;6.738;2023-03-23T01:21:10;12.50;70.70
53268;DHT22;39156;51.176;6.738;2023-03-23T01:23:39;12.50;70.80
53268;DHT22;39156;51.176;6.738;2023-03-23T01:26:07;12.50;70.80
53268;DHT22;39156;51.176;6.738;2023-03-23T01:28:39;12.50;70.80
53268;DHT22;39156;51.176;6.738;2023-03-23T01:31:17;12.50;70.90
53268;DHT22;39156;51.176;6.738;2023-03-23T01:33:44;12.50;71.00
53268;DHT22;39156;51.176;6.738;2023-03-23T01:36:19;12.50;71.10
53268;DHT22;39156;51.176;6.738;2023-03-23T01:38:48;12.40;71.60
53268;DHT22;39156;51.176;6.738;2023-03-23T01:41:15;12.50;71.90
53268;DHT22;39156;51.176;6.738;2023-03-23T01:44:06;12.50;72.30
53268;DHT22;39156;51.176;6.738;2023-03-23T01:46:34;12.40;73.30
53268;DHT22;39156;51.176;6.738;2023-03-23T01:49:09;12.40;73.00
53268;DHT22;39156;51.176;6.738;2023-03-23T01:51:42;12.40;73.70
53268;DHT22;39156;51.176;6.738;2023-03-23T01:54:13;12.40;73.70
53268;DHT22;39156;51.176;6.738;2023-03-23T01:56:45;12.30;73.70
53268;DHT22;39156;51.176;6.738;2023-03-23T01:59:14;12.30;74.10
53268;DHT22;39156;51.176;6.738;2023-03-23T02:01:41;12.20;73.90
53268;DHT22;39156;51.176;6.738;2023-03-23T02:04:13;12.20;74.10
53268;DHT22;39156;51.176;6.738;2023-03-23T02:06:40;12.20;74.50
53268;DHT22;39156;51.176;6.738;2023-03-23T02:09:07;12.10;74.60
53268;DHT22;39156;51.176;6.738;2023-03-23T02:11:33;12.00;74.70
53268;DHT22;39156;51.176;6.738;2023-03-23T02:13:59;12.10;74.80
53268;DHT22;39156;51.176;6.738;2023-03-23T02:16:41;12.10;74.90
53268;DHT22;39156;51.176;6.738;2023-03-23T02:29:02;11.90;75.70
53268;DHT22;39156;51.176;6.738;2023-03-23T02:31:59;11.90;75.00
53268;DHT22;39156;51.176;6.738;2023-03-23T02:34:39;11.90;75.60
53268;DHT22;39156;51.176;6.738;2023-03-23T02:37:28;11.80;75.10
53268;DHT22;39156;51.176;6.738;2023-03-23T02:40:04;11.80;75.50
53268;DHT22;39156;51.176;6.738;2023-03-23T02:42:42;11.80;75.00
53268;DHT22;39156;51.176;6.738;2023-03-23T02:45:10;11.80;75.10
53268;DHT22;39156;51.176;6.738;2023-03-23T02:47:38;11.80;75.00
53268;DHT22;39156;51.176;6.738;2023-03-23T02:50:08;11.80;74.90
53268;DHT22;39156;51.176;6.738;2023-03-23T02:52:38;11.80;74.90
53268;DHT22;39156;51.176;6.738;2023-03-23T02:55:06;11.70;74.80
53268;DHT22;39156;51.176;6.738;2023-03-23T02:57:33;11.70;75.00
53268;DHT22;39156;51.176;6.738;2023-03-23T02:59:59;11.80;74.80
53268;DHT22;39156;51.176;6.738;2023-03-23T03:02:28;11.70;74.70
53268;DHT22;39156;51.176;6.738;2023-03-23T03:08:24;11.70;74.90
53268;DHT22;39156;51.176;6.738;2023-03-23T03:10:53;11.70;75.00
53268;DHT22;39156;51.176;6.738;2023-03-23T03:13:50;11.80;74.80
53268;DHT22;39156;51.176;6.738;2023-03-23T03:16:41;11.80;75.10
53268;DHT22;39156;51.176;6.738;2023-03-23T03:19:24;11.80;74.60
53268;DHT22;39156;51.176;6.738;2023-03-23T03:21:54;11.80;74.70
53268;DHT22;39156;51.176;6.738;2023-03-23T03:24:24;11.80;74.40
53268;DHT22;39156;51.176;6.738;2023-03-23T03:26:54;11.80;74.40
53268;DHT22;39156;51.176;6.738;2023-03-23T03:29:26;11.80;74.40
53268;DHT22;39156;51.176;6.738;2023-03-23T03:31:55;11.80;74.40
53268;DHT22;39156;51.176;6.738;2023-03-23T03:34:22;11.80;74.30
53268;DHT22;39156;51.176;6.738;2023-03-23T03:36:49;11.80;74.30
53268;DHT22;39156;51.176;6.738;2023-03-23T03:39:17;11.80;74.40
53268;DHT22;39156;51.176;6.738;2023-03-23T03:41:45;11.80;73.90
53268;DHT22;39156;51.176;6.738;2023-03-23T03:44:11;11.90;74.00
53268;DHT22;39156;51.176;6.738;2023-03-23T03:46:37;11.80;74.10
53268;DHT22;39156;51.176;6.738;2023-03-23T03:49:05;11.80;74.00
53268;DHT22;39156;51.176;6.738;2023-03-23T03:51:33;11.90;74.10
53268;DHT22;39156;51.176;6.738;2023-03-23T03:54:00;11.80;74.00
53268;DHT22;39156;51.176;6.738;2023-03-23T03:56:26;11.90;74.10
53268;DHT22;39156;51.176;6.738;2023-03-23T03:58:52;11.80;74.00
53268;DHT22;39156;51.176;6.738;2023-03-23T04:01:20;11.80;74.00
53268;DHT22;39156;51.176;6.738;2023-03-23T04:03:48;11.70;74.00
53268;DHT22;39156;51.176;6.738;2023-03-23T04:06:14;11.80;74.00
53268;DHT22;39156;51.176;6.738;2023-03-23T04:08:41;11.80;74.00
53268;DHT22;39156;51.176;6.738;2023-03-23T04:11:14;11.80;74.00
53268;DHT22;39156;51.176;6.738;2023-03-23T04:13:40;11.80;74.10
53268;DHT22;39156;51.176;6.738;2023-03-23T04:16:07;11.80;74.00
53268;DHT22;39156;51.176;6.738;2023-03-23T04:18:35;11.80;74.00
53268;DHT22;39156;51.176;6.738;2023-03-23T04:21:02;11.80;73.90
53268;DHT22;39156;51.176;6.738;2023-03-23T04:23:30;11.80;73.90
53268;DHT22;39156;51.176;6.738;2023-03-23T04:25:58;11.80;74.00
53268;DHT22;39156;51.176;6.738;2023-03-23T04:28:25;11.80;73.90
53268;DHT22;39156;51.176;6.738;2023-03-23T04:30:52;11.90;73.90
53268;DHT22;39156;51.176;6.738;2023-03-23T04:33:19;11.70;73.80
53268;DHT22;39156;51.176;6.738;2023-03-23T04:35:46;11.70;73.80
53268;DHT22;39156;51.176;6.738;2023-03-23T04:38:14;11.80;73.80
53268;DHT22;39156;51.176;6.738;2023-03-23T04:40:42;11.80;73.80
53268;DHT22;39156;51.176;6.738;2023-03-23T04:43:09;11.80;73.90
53268;DHT22;39156;51.176;6.738;2023-03-23T04:45:38;11.80;73.90
53268;DHT22;39156;51.176;6.738;2023-03-23T04:48:07;11.80;73.90
53268;DHT22;39156;51.176;6.738;2023-03-23T04:50:34;11.80;73.90
53268;DHT22;39156;51.176;6.738;2023-03-23T04:53:01;11.80;73.80
53268;DHT22;39156;51.176;6.738;2023-03-23T04:55:34;11.80;73.90
53268;DHT22;39156;51.176;6.738;2023-03-23T04:58:05;11.90;74.00
53268;DHT22;39156;51.176;6.738;2023-03-23T05:00:34;11.90;73.80
53268;DHT22;39156;51.176;6.738;2023-03-23T05:03:01;11.90;73.80
53268;DHT22;39156;51.176;6.738;2023-03-23T05:05:27;11.90;73.90
53268;DHT22;39156;51.176;6.738;2023-03-23T05:07:56;11.90;73.60
53268;DHT22;39156;51.176;6.738;2023-03-23T05:10:22;11.90;73.50
53268;DHT22;39156;51.176;6.738;2023-03-23T05:12:49;11.90;73.60
53268;DHT22;39156;51.176;6.738;2023-03-23T05:15:15;11.90;73.50
53268;DHT22;39156;51.176;6.738;2023-03-23T05:17:42;11.90;73.50
53268;DHT22;39156;51.176;6.738;2023-03-23T05:20:13;12.00;73.60
53268;DHT22;39156;51.176;6.738;2023-03-23T05:22:43;12.00;73.40
53268;DHT22;39156;51.176;6.738;2023-03-23T05:25:15;11.90;73.30
53268;DHT22;39156;51.176;6.738;2023-03-23T05:27:44;12.00;73.30
53268;DHT22;39156;51.176;6.738;2023-03-23T05:30:14;11.90;73.90
53268;DHT22;39156;51.176;6.738;2023-03-23T05:32:42;12.00;73.30
53268;DHT22;39156;51.176;6.738;2023-03-23T05:35:10;12.00;73.20
53268;DHT22;39156;51.176;6.738;2023-03-23T05:37:37;12.00;73.20
53268;DHT22;39156;51.176;6.738;2023-03-23T05:40:04;12.00;73.20
53268;DHT22;39156;51.176;6.738;2023-03-23T05:42:33;11.90;73.20
53268;DHT22;39156;51.176;6.738;2023-03-23T05:45:00;11.90;73.70
53268;DHT22;39156;51.176;6.738;2023-03-23T05:47:26;12.00;73.00
53268;DHT22;39156;51.176;6.738;2023-03-23T05:49:52;12.00;73.20
53268;DHT22;39156;51.176;6.738;2023-03-23T05:52:19;11.90;72.70
53268;DHT22;39156;51.176;6.738;2023-03-23T05:54:45;12.00;72.60
53268;DHT22;39156;51.176;6.738;2023-03-23T05:57:11;11.90;72.60
53268;DHT22;39156;51.176;6.738;2023-03-23T05:59:37;12.00;72.70
53268;DHT22;39156;51.176;6.738;2023-03-23T06:02:04;12.00;72.50
53268;DHT22;39156;51.176;6.738;2023-03-23T06:04:30;12.00;72.30
53268;DHT22;39156;51.176;6.738;2023-03-23T06:07:00;12.00;72.40
53268;DHT22;39156;51.176;6.738;2023-03-23T06:09:26;12.00;72.50
53268;DHT22;39156;51.176;6.738;2023-03-23T06:11:52;12.00;72.30
53268;DHT22;39156;51.176;6.738;2023-03-23T06:14:18;11.90;72.10
53268;DHT22;39156;51.176;6.738;2023-03-23T06:16:43;12.00;72.20
53268;DHT22;39156;51.176;6.738;2023-03-23T06:19:09;12.00;72.20
53268;DHT22;39156;51.176;6.738;2023-03-23T06:21:36;12.00;72.20
53268;DHT22;39156;51.176;6.738;2023-03-23T06:24:02;12.00;72.10
53268;DHT22;39156;51.176;6.738;2023-03-23T06:26:33;12.00;71.90
53268;DHT22;39156;51.176;6.738;2023-03-23T06:29:00;12.10;72.00
53268;DHT22;39156;51.176;6.738;2023-03-23T06:31:27;12.10;72.00
53268;DHT22;39156;51.176;6.738;2023-03-23T06:33:53;12.10;71.90
53268;DHT22;39156;51.176;6.738;2023-03-23T06:36:19;12.10;71.70
53268;DHT22;39156;51.176;6.738;2023-03-23T06:38:44;12.10;71.60
53268;DHT22;39156;51.176;6.738;2023-03-23T06:41:11;12.10;71.50
53268;DHT22;39156;51.176;6.738;2023-03-23T06:43:37;12.20;71.40
53268;DHT22;39156;51.176;6.738;2023-03-23T06:46:05;12.20;71.40
53268;DHT22;39156;51.176;6.738;2023-03-23T06:48:31;12.20;71.30
53268;DHT22;39156;51.176;6.738;2023-03-23T06:50:57;12.30;71.30
53268;DHT22;39156;51.176;6.738;2023-03-23T06:53:23;12.30;71.20
53268;DHT22;39156;51.176;6.738;2023-03-23T06:55:49;12.30;70.90
53268;DHT22;39156;51.176;6.738;2023-03-23T06:58:15;12.30;71.10
53268;DHT22;39156;51.176;6.738;2023-03-23T07:00:40;12.30;70.90
53268;DHT22;39156;51.176;6.738;2023-03-23T07:03:06;12.30;71.10
53268;DHT22;39156;51.176;6.738;2023-03-23T07:05:34;12.30;70.90
53268;DHT22;39156;51.176;6.738;2023-03-23T07:08:01;12.30;70.80
53268;DHT22;39156;51.176;6.738;2023-03-23T07:10:28;12.40;70.90
53268;DHT22;39156;51.176;6.738;2023-03-23T07:12:54;12.30;70.80
53268;DHT22;39156;51.176;6.738;2023-03-23T07:15:19;12.30;70.60
53268;DHT22;39156;51.176;6.738;2023-03-23T07:17:47;12.40;70.80
53268;DHT22;39156;51.176;6.738;2023-03-23T07:20:13;12.40;70.70
53268;DHT22;39156;51.176;6.738;2023-03-23T07:22:39;12.40;70.70
53268;DHT22;39156;51.176;6.738;2023-03-23T07:25:06;12.50;70.80
53268;DHT22;39156;51.176;6.738;2023-03-23T07:27:33;12.50;70.70
53268;DHT22;39156;51.176;6.738;2023-03-23T07:29:59;12.50;70.60
53268;DHT22;39156;51.176;6.738;2023-03-23T07:32:24;12.50;70.20
53268;DHT22;39156;51.176;6.738;2023-03-23T07:34:50;12.50;70.40
53268;DHT22;39156;51.176;6.738;2023-03-23T07:37:16;12.60;70.30
53268;DHT22;39156;51.176;6.738;2023-03-23T07:39:42;12.60;70.20
53268;DHT22;39156;51.176;6.738;2023-03-23T07:42:08;12.70;70.20
53268;DHT22;39156;51.176;6.738;2023-03-23T07:44:34;12.70;70.00
53268;DHT22;39156;51.176;6.738;2023-03-23T07:47:00;12.70;70.00
53268;DHT22;39156;51.176;6.738;2023-03-23T07:49:26;12.70;69.80
53268;DHT22;39156;51.176;6.738;2023-03-23T07:51:52;12.70;69.60
53268;DHT22;39156;51.176;6.738;2023-03-23T07:54:18;12.80;69.40
53268;DHT22;39156;51.176;6.738;2023-03-23T07:56:44;12.80;69.30
53268;DHT22;39156;51.176;6.738;2023-03-23T07:59:10;12.80;69.20
53268;DHT22;39156;51.176;6.738;2023-03-23T08:01:38;12.80;69.20
53268;DHT22;39156;51.176;6.738;2023-03-23T08:04:04;12.80;68.90
53268;DHT22;39156;51.176;6.738;2023-03-23T08:06:32;12.80;68.70
53268;DHT22;39156;51.176;6.738;2023-03-23T08:08:59;12.80;68.50
53268;DHT22;39156;51.176;6.738;2023-03-23T08:11:26;12.90;68.40
53268;DHT22;39156;51.176;6.738;2023-03-23T08:13:52;12.90;68.30
53268;DHT22;39156;51.176;6.738;2023-03-23T08:16:18;13.00;68.20
53268;DHT22;39156;51.176;6.738;2023-03-23T08:18:45;13.00;68.30
53268;DHT22;39156;51.176;6.738;2023-03-23T08:21:12;13.00;68.40
53268;DHT22;39156;51.176;6.738;2023-03-23T08:23:38;13.10;68.40
53268;DHT22;39156;51.176;6.738;2023-03-23T08:26:07;13.20;68.00
53268;DHT22;39156;51.176;6.738;2023-03-23T08:28:35;13.20;67.90
53268;DHT22;39156;51.176;6.738;2023-03-23T08:31:09;13.20;67.90
53268;DHT22;39156;51.176;6.738;2023-03-23T08:33:37;13.30;67.70
53268;DHT22;39156;51.176;6.738;2023-03-23T08:36:03;13.30;67.70
53268;DHT22;39156;51.176;6.738;2023-03-23T08:38:30;13.30;67.50
53268;DHT22;39156;51.176;6.738;2023-03-23T08:41:01;13.40;67.20
53268;DHT22;39156;51.176;6.738;2023-03-23T08:43:29;13.40;67.00
53268;DHT22;39156;51.176;6.738;2023-03-23T08:45:58;13.50;67.20
53268;DHT22;39156;51.176;6.738;2023-03-23T08:48:24;13.50;67.00
53268;DHT22;39156;51.176;6.738;2023-03-23T08:50:50;13.60;67.00
53268;DHT22;39156;51.176;6.738;2023-03-23T08:53:17;13.60;67.10
53268;DHT22;39156;51.176;6.738;2023-03-23T08:55:46;13.70;66.60
53268;DHT22;39156;51.176;6.738;2023-03-23T08:58:12;13.70;66.30
53268;DHT22;39156;51.176;6.738;2023-03-23T09:00:38;13.80;66.10
53268;DHT22;39156;51.176;6.738;2023-03-23T09:03:05;13.80;66.30
53268;DHT22;39156;51.176;6.738;2023-03-23T09:05:31;13.80;66.30
53268;DHT22;39156;51.176;6.738;2023-03-23T09:07:57;13.80;66.00
53268;DHT22;39156;51.176;6.738;2023-03-23T09:10:26;13.80;65.80
53268;DHT22;39156;51.176;6.738;2023-03-23T09:12:53;13.80;66.00
53268;DHT22;39156;51.176;6.738;2023-03-23T09:15:20;13.80;66.60
53268;DHT22;39156;51.176;6.738;2023-03-23T09:17:48;13.80;65.90
53268;DHT22;39156;51.176;6.738;2023-03-23T09:20:18;13.80;65.90
53268;DHT22;39156;51.176;6.738;2023-03-23T09:22:48;13.80;65.90
53268;DHT22;39156;51.176;6.738;2023-03-23T09:25:17;13.90;66.00
53268;DHT22;39156;51.176;6.738;2023-03-23T09:27:49;13.90;65.80
53268;DHT22;39156;51.176;6.738;2023-03-23T09:30:19;14.00;65.70
53268;DHT22;39156;51.176;6.738;2023-03-23T09:32:46;14.00;65.40
53268;DHT22;39156;51.176;6.738;2023-03-23T09:35:14;14.00;65.10
53268;DHT22;39156;51.176;6.738;2023-03-23T09:37:42;14.00;65.00
53268;DHT22;39156;51.176;6.738;2023-03-23T09:40:39;14.00;65.50
53268;DHT22;39156;51.176;6.738;2023-03-23T09:48:53;13.90;64.10
53268;DHT22;39156;51.176;6.738;2023-03-23T09:56:55;13.80;64.20
53268;DHT22;39156;51.176;6.738;2023-03-23T09:59:42;13.80;64.40
53268;DHT22;39156;51.176;6.738;2023-03-23T10:02:18;13.80;64.60
53268;DHT22;39156;51.176;6.738;2023-03-23T10:04:51;13.80;65.00
53268;DHT22;39156;51.176;6.738;2023-03-23T10:07:25;13.90;65.00
53268;DHT22;39156;51.176;6.738;2023-03-23T10:09:56;13.90;65.50
53268;DHT22;39156;51.176;6.738;2023-03-23T10:15:30;13.80;66.80
53268;DHT22;39156;51.176;6.738;2023-03-23T10:18:04;13.60;67.40
53268;DHT22;39156;51.176;6.738;2023-03-23T10:26:28;13.20;69.50
53268;DHT22;39156;51.176;6.738;2023-03-23T10:29:07;13.10;68.30
53268;DHT22;39156;51.176;6.738;2023-03-23T10:31:42;13.00;69.20
53268;DHT22;39156;51.176;6.738;2023-03-23T10:35:14;12.80;69.80
53268;DHT22;39156;51.176;6.738;2023-03-23T10:37:30;12.70;70.50
53268;DHT22;39156;51.176;6.738;2023-03-23T10:40:00;12.50;71.00
53268;DHT22;39156;51.176;6.738;2023-03-23T10:42:33;12.40;70.90
53268;DHT22;39156;51.176;6.738;2023-03-23T10:50:45;12.30;72.40
53268;DHT22;39156;51.176;6.738;2023-03-23T10:53:23;12.20;72.40
53268;DHT22;39156;51.176;6.738;2023-03-23T10:55:55;12.10;73.30
53268;DHT22;39156;51.176;6.738;2023-03-23T10:58:33;12.00;72.80
53268;DHT22;39156;51.176;6.738;2023-03-23T11:01:03;11.90;73.70
53268;DHT22;39156;51.176;6.738;2023-03-23T11:06:01;11.90;73.60
53268;DHT22;39156;51.176;6.738;2023-03-23T11:08:32;11.90;73.70
53268;DHT22;39156;51.176;6.738;2023-03-23T11:11:17;11.90;73.90
53268;DHT22;39156;51.176;6.738;2023-03-23T11:13:48;11.80;74.70
53268;DHT22;39156;51.176;6.738;2023-03-23T11:16:24;11.80;74.60
53268;DHT22;39156;51.176;6.738;2023-03-23T11:18:53;11.80;75.20
53268;DHT22;39156;51.176;6.738;2023-03-23T11:21:21;11.80;74.90
53268;DHT22;39156;51.176;6.738;2023-03-23T11:23:55;11.80;74.40
53268;DHT22;39156;51.176;6.738;2023-03-23T11:26:34;11.80;74.70
53268;DHT22;39156;51.176;6.738;2023-03-23T11:29:16;11.80;74.70
53268;DHT22;39156;51.176;6.738;2023-03-23T11:34:31;11.80;75.00
53268;DHT22;39156;51.176;6.738;2023-03-23T11:40:30;11.80;75.50
53268;DHT22;39156;51.176;6.738;2023-03-23T11:43:01;11.90;75.60
53268;DHT22;39156;51.176;6.738;2023-03-23T11:45:45;11.90;75.60
53268;DHT22;39156;51.176;6.738;2023-03-23T11:48:39;11.90;75.50
53268;DHT22;39156;51.176;6.738;2023-03-23T11:51:29;12.10;76.20
53268;DHT22;39156;51.176;6.738;2023-03-23T11:56:52;12.30;75.80
53268;DHT22;39156;51.176;6.738;2023-03-23T11:59:32;12.50;75.80
53268;DHT22;39156;51.176;6.738;2023-03-23T12:05:22;12.60;76.00
53268;DHT22;39156;51.176;6.738;2023-03-23T12:14:26;13.10;76.10
53268;DHT22;39156;51.176;6.738;2023-03-23T12:27:01;13.80;75.60
53268;DHT22;39156;51.176;6.738;2023-03-23T12:29:14;14.00;75.00
53268;DHT22;39156;51.176;6.738;2023-03-23T12:32:31;14.20;74.70
53268;DHT22;39156;51.176;6.738;2023-03-23T12:35:34;14.30;74.40
53268;DHT22;39156;51.176;6.738;2023-03-23T12:41:42;14.40;73.60
53268;DHT22;39156;51.176;6.738;2023-03-23T12:44:17;14.30;73.40
53268;DHT22;39156;51.176;6.738;2023-03-23T12:49:35;14.40;74.50
53268;DHT22;39156;51.176;6.738;2023-03-23T12:52:24;14.40;74.30
53268;DHT22;39156;51.176;6.738;2023-03-23T12:55:02;14.50;74.70
53268;DHT22;39156;51.176;6.738;2023-03-23T12:57:44;14.60;74.10
53268;DHT22;39156;51.176;6.738;2023-03-23T13:00:34;14.80;73.80
53268;DHT22;39156;51.176;6.738;2023-03-23T13:06:32;15.00;74.00
53268;DHT22;39156;51.176;6.738;2023-03-23T13:11:41;15.00;73.30
53268;DHT22;39156;51.176;6.738;2023-03-23T13:22:53;14.90;72.40
53268;DHT22;39156;51.176;6.738;2023-03-23T13:28:25;14.90;72.80
53268;DHT22;39156;51.176;6.738;2023-03-23T13:34:01;14.80;72.80
53268;DHT22;39156;51.176;6.738;2023-03-23T13:36:37;14.70;72.90
53268;DHT22;39156;51.176;6.738;2023-03-23T13:39:16;14.70;73.00
53268;DHT22;39156;51.176;6.738;2023-03-23T13:42:18;14.60;73.10
53268;DHT22;39156;51.176;6.738;2023-03-23T13:50:09;14.40;73.50
53268;DHT22;39156;51.176;6.738;2023-03-23T14:00:45;14.30;74.60
53268;DHT22;39156;51.176;6.738;2023-03-23T14:03:32;14.30;74.70
53268;DHT22;39156;51.176;6.738;2023-03-23T14:06:03;14.30;73.30
53268;DHT22;39156;51.176;6.738;2023-03-23T14:10:58;14.30;71.80
53268;DHT22;39156;51.176;6.738;2023-03-23T14:16:40;14.40;71.20
53268;DHT22;39156;51.176;6.738;2023-03-23T14:19:24;14.40;70.70
53268;DHT22;39156;51.176;6.738;2023-03-23T14:21:57;14.40;71.00
53268;DHT22;39156;51.176;6.738;2023-03-23T14:24:31;14.40;71.60
53268;DHT22;39156;51.176;6.738;2023-03-23T14:27:21;14.40;71.70
53268;DHT22;39156;51.176;6.738;2023-03-23T14:30:06;14.40;71.00
53268;DHT22;39156;51.176;6.738;2023-03-23T14:32:34;14.50;70.70
53268;DHT22;39156;51.176;6.738;2023-03-23T14:35:06;14.50;71.10
53268;DHT22;39156;51.176;6.738;2023-03-23T14:37:34;14.60;71.20
53268;DHT22;39156;51.176;6.738;2023-03-23T14:40:03;14.60;70.80
53268;DHT22;39156;51.176;6.738;2023-03-23T14:42:34;14.60;70.90
53268;DHT22;39156;51.176;6.738;2023-03-23T14:45:02;14.60;70.60
53268;DHT22;39156;51.176;6.738;2023-03-23T14:47:33;14.70;70.30
53268;DHT22;39156;51.176;6.738;2023-03-23T14:50:02;14.70;70.10
53268;DHT22;39156;51.176;6.738;2023-03-23T14:52:34;14.60;69.80
53268;DHT22;39156;51.176;6.738;2023-03-23T14:55:19;14.60;70.20
53268;DHT22;39156;51.176;6.738;2023-03-23T14:57:47;14.60;70.60
53268;DHT22;39156;51.176;6.738;2023-03-23T15:00:15;14.60;70.10
53268;DHT22;39156;51.176;6.738;2023-03-23T15:02:47;14.50;70.50
53268;DHT22;39156;51.176;6.738;2023-03-23T15:05:23;14.60;70.40
53268;DHT22;39156;51.176;6.738;2023-03-23T15:07:56;14.50;70.80
53268;DHT22;39156;51.176;6.738;2023-03-23T15:10:26;14.50;70.60
53268;DHT22;39156;51.176;6.738;2023-03-23T15:12:52;14.40;70.70
53268;DHT22;39156;51.176;6.738;2023-03-23T15:15:33;14.50;71.00
53268;DHT22;39156;51.176;6.738;2023-03-23T15:18:00;14.50;70.60
53268;DHT22;39156;51.176;6.738;2023-03-23T15:20:30;14.50;70.00
53268;DHT22;39156;51.176;6.738;2023-03-23T15:23:05;14.50;70.10
53268;DHT22;39156;51.176;6.738;2023-03-23T15:25:34;14.50;70.00
53268;DHT22;39156;51.176;6.738;2023-03-23T15:30:36;14.60;69.70
53268;DHT22;39156;51.176;6.738;2023-03-23T15:33:13;14.60;70.00
53268;DHT22;39156;51.176;6.738;2023-03-23T15:35:50;14.60;70.10
53268;DHT22;39156;51.176;6.738;2023-03-23T15:38:33;14.60;70.30
53268;DHT22;39156;51.176;6.738;2023-03-23T15:41:02;14.60;70.40
53268;DHT22;39156;51.176;6.738;2023-03-23T15:43:32;14.50;70.30
53268;DHT22;39156;51.176;6.738;2023-03-23T15:48:47;14.60;71.00
53268;DHT22;39156;51.176;6.738;2023-03-23T15:51:19;14.50;70.90
53268;DHT22;39156;51.176;6.738;2023-03-23T15:53:47;14.60;71.00
53268;DHT22;39156;51.176;6.738;2023-03-23T15:56:13;14.60;70.60
53268;DHT22;39156;51.176;6.738;2023-03-23T15:58:40;14.70;70.80
53268;DHT22;39156;51.176;6.738;2023-03-23T16:03:55;14.70;70.40
53268;DHT22;39156;51.176;6.738;2023-03-23T16:06:30;14.70;70.20
53268;DHT22;39156;51.176;6.738;2023-03-23T16:08:58;14.70;70.40
53268;DHT22;39156;51.176;6.738;2023-03-23T16:11:27;14.80;70.20
53268;DHT22;39156;51.176;6.738;2023-03-23T16:14:01;14.80;69.70
53268;DHT22;39156;51.176;6.738;2023-03-23T16:16:36;14.80;69.50
53268;DHT22;39156;51.176;6.738;2023-03-23T16:19:04;14.80;69.10
53268;DHT22;39156;51.176;6.738;2023-03-23T16:21:31;14.80;69.20
53268;DHT22;39156;51.176;6.738;2023-03-23T16:23:59;14.80;68.90
53268;DHT22;39156;51.176;6.738;2023-03-23T16:26:25;14.80;68.40
53268;DHT22;39156;51.176;6.738;2023-03-23T16:28:51;14.80;67.90
53268;DHT22;39156;51.176;6.738;2023-03-23T16:31:17;14.80;67.30
53268;DHT22;39156;51.176;6.738;2023-03-23T16:33:42;14.90;67.10
53268;DHT22;39156;51.176;6.738;2023-03-23T16:36:15;14.90;66.70
53268;DHT22;39156;51.176;6.738;2023-03-23T16:38:41;14.90;66.30
53268;DHT22;39156;51.176;6.738;2023-03-23T16:41:07;14.90;66.20
53268;DHT22;39156;51.176;6.738;2023-03-23T16:43:33;14.80;65.90
53268;DHT22;39156;51.176;6.738;2023-03-23T16:45:59;14.90;65.80
53268;DHT22;39156;51.176;6.738;2023-03-23T16:48:26;14.80;65.80
53268;DHT22;39156;51.176;6.738;2023-03-23T16:50:52;14.80;65.90
53268;DHT22;39156;51.176;6.738;2023-03-23T16:53:19;14.70;65.90
53268;DHT22;39156;51.176;6.738;2023-03-23T16:55:46;14.70;65.70
53268;DHT22;39156;51.176;6.738;2023-03-23T16:58:14;14.70;65.50
53268;DHT22;39156;51.176;6.738;2023-03-23T17:00:41;14.70;65.20
53268;DHT22;39156;51.176;6.738;2023-03-23T17:03:07;14.70;65.00
53268;DHT22;39156;51.176;6.738;2023-03-23T17:05:34;14.70;65.10
53268;DHT22;39156;51.176;6.738;2023-03-23T17:08:01;14.50;64.70
53268;DHT22;39156;51.176;6.738;2023-03-23T17:10:30;14.60;64.80
53268;DHT22;39156;51.176;6.738;2023-03-23T17:12:57;14.60;64.70
53268;DHT22;39156;51.176;6.738;2023-03-23T17:15:23;14.50;64.80
53268;DHT22;39156;51.176;6.738;2023-03-23T17:17:50;14.50;64.80
53268;DHT22;39156;51.176;6.738;2023-03-23T17:20:16;14.40;64.60
53268;DHT22;39156;51.176;6.738;2023-03-23T17:22:42;14.40;64.80
53268;DHT22;39156;51.176;6.738;2023-03-23T17:25:08;14.40;64.50
53268;DHT22;39156;51.176;6.738;2023-03-23T17:27:35;14.50;64.50
53268;DHT22;39156;51.176;6.738;2023-03-23T17:30:03;14.40;64.20
53268;DHT22;39156;51.176;6.738;2023-03-23T17:32:30;14.40;64.40
53268;DHT22;39156;51.176;6.738;2023-03-23T17:34:56;14.40;64.00
53268;DHT22;39156;51.176;6.738;2023-03-23T17:37:21;14.40;64.10
53268;DHT22;39156;51.176;6.738;2023-03-23T17:39:47;14.30;64.20
53268;DHT22;39156;51.176;6.738;2023-03-23T17:42:13;14.30;64.20
53268;DHT22;39156;51.176;6.738;2023-03-23T17:44:39;14.20;64.30
53268;DHT22;39156;51.176;6.738;2023-03-23T17:47:05;14.20;64.40
53268;DHT22;39156;51.176;6.738;2023-03-23T17:49:31;14.10;64.50
53268;DHT22;39156;51.176;6.738;2023-03-23T17:51:57;14.20;64.60
53268;DHT22;39156;51.176;6.738;2023-03-23T17:54:24;14.10;65.20